Página principal
METAR-TAF:

METAR-TAF

Aeroportos :

Aeroporto Humberto Delgado

Lisboa, Portugal

latitude: 38-46N, longitude: 009-08W, altura: 114 m

Observação actual do tempo

O boletim foi feito há 35 minutos, às 07:00 UTC
Vento 7 kt de nordeste
Temperatura 13°C
Humidade 72%
Pressão 1018 hPa
Visibilidade 10 km ou mais
Poucas nuvensa uma altura de 2400 ft

METAR: LPPT 170700Z 05007KT 9999 FEW024 13/08 Q1018

Hora: 08:35 (07:35 UTC)

Previsão

O boletim foi feito há 2 horas e 35 minutos, às 05:00 UTC
Previsão válida de 17 às 06 UTC a 18 às 12 UTC
Vento 2 kt com direcção variável
Visibilidade 10 km ou mais
sem nuvens abaixo de 1500 metros e sem cumulonimbus
Tornando-se
de 17 às 16 UTC a 17 às 18 UTC
Vento 8 kt de noroeste
Tornando-se
de 18 às 03 UTC a 18 às 06 UTC
Vento 7 kt de nordeste
Tornando-se
de 18 às 10 UTC a 18 às 12 UTC
Vento 2 kt com direcção variável

TAF: LPPT 170500Z 1706/1812 VRB02KT CAVOK BECMG 1716/1718 32008KT BECMG 1803/1806 04007KT BECMG 1810/1812 VRB02KT

Observações e previsões do tempo de mais de 4000 aeroportos (mensagens METAR e TAF).

As estações disponíveis são os pontos amarelos e vermelhos sobre o mapa.

Mova o rato sobre o mapa para ver o nome da estação.

Depois clique no ponto para visualizar as observações e previsões meteorológicas.

Para alterar o mapa : clique nos botões verdes com uma cruz preta para aumentar o zoom; no botão verde com uma pitada de zoom; ou nas setas verdes para mapas adjacentes.


METAR-TAF: